Dati Storici

Data ora Umidita' aria (%) Temperatura aria (°C) Rad globale (W/m²) Gonioanemometro (°) Tacoanemometro (m/s) Pioggia (mm)
10-11-2012 03:10 84.2 % 8.614 2.361 338.15 0.868 0
10-11-2012 03:00 84 % 8.705 2.361 304.491 0.477 0
10-11-2012 02:50 84 % 8.74 1.707 256.15 1.041 0
10-11-2012 02:40 83.3 % 8.695 1.515 1.178 0.612 0
10-11-2012 02:30 82.4 % 9.029 1.874 305.654 0.427 0
10-11-2012 02:20 81.8 % 9.295 2.63 329.147 0.659 0
10-11-2012 02:10 81.6 % 9.431 3.45 330.723 0.783 0
10-11-2012 02:00 81.5 % 9.484 3.63 339.493 0.696 0
10-11-2012 01:50 81.5 % 9.555 3.745 1.759 0.556 0
10-11-2012 01:40 81.2 % 9.69 3.937 9.037 0.672 0
10-11-2012 01:30 81.2 % 9.758 4.014 1.36 0.735 0
10-11-2012 01:20 81.6 % 9.751 3.898 331.035 0.723 0
10-11-2012 01:10 82.2 % 9.723 3.834 83.488 0.342 0
10-11-2012 01:00 82.9 % 9.692 3.821 51.92 0.404 0
10-11-2012 00:50 82.4 % 9.58 2.963 318.197 -0.006 0
10-11-2012 00:40 82.7 % 9.765 4.008 304.553 0.625 0
10-11-2012 00:30 82.6 % 9.724 3.995 326.387 1.147 0
10-11-2012 00:20 82.7 % 9.621 3.675 279.727 0.261 0
10-11-2012 00:10 82.4 % 9.383 3.188 303.85 0.357 0
10-11-2012 00:00 81.8 % 9.454 3.226 228.605 0.347 0

I dati sono presentati in modo automatico a scopo informativo. In seguito a verifica i dati possono subire modifiche o essere invalidati e non riportati negli archivi definitivi.